createdAt,value
2018-06-04T00:02:10.990Z,25.63
2018-06-04T00:04:38.609Z,27.30
2018-06-04T00:07:06.154Z,29.17
2018-06-04T00:09:34.755Z,28.40
2018-06-04T00:12:02.320Z,28.70
2018-06-04T00:14:29.903Z,27.70
2018-06-04T00:16:57.451Z,30.17
2018-06-04T00:19:25.010Z,31.53
2018-06-04T00:21:52.570Z,32.07
2018-06-04T00:24:20.106Z,32.63
2018-06-04T00:26:47.658Z,31.53
2018-06-04T00:29:15.220Z,30.17
2018-06-04T00:31:42.783Z,29.50
2018-06-04T00:34:10.334Z,30.93
2018-06-04T00:36:37.878Z,32.40
2018-06-04T00:39:07.775Z,30.30
2018-06-04T00:41:35.683Z,29.83
2018-06-04T00:44:03.238Z,30.73
2018-06-04T00:46:30.911Z,29.30
2018-06-04T00:48:58.461Z,28.60
2018-06-04T00:51:26.001Z,30.77
2018-06-04T00:53:53.529Z,30.73
2018-06-04T00:56:22.586Z,30.83
2018-06-04T00:58:50.134Z,30.50
2018-06-04T01:01:17.727Z,30.53
2018-06-04T01:03:45.283Z,33.03
2018-06-04T01:06:12.850Z,32.37
2018-06-04T01:08:40.389Z,32.60
2018-06-04T01:11:09.051Z,33.30
2018-06-04T01:13:36.603Z,31.60
2018-06-04T01:16:04.196Z,32.77
2018-06-04T01:18:31.754Z,32.10
2018-06-04T01:20:59.315Z,31.77
2018-06-04T01:23:26.845Z,29.67
2018-06-04T01:25:54.397Z,28.90
2018-06-04T01:28:21.939Z,30.00
2018-06-04T01:30:49.498Z,31.57
2018-06-04T01:33:17.061Z,32.37
2018-06-04T01:35:44.634Z,32.63
2018-06-04T01:38:12.258Z,33.70
2018-06-04T01:40:39.803Z,33.90
2018-06-04T01:43:07.361Z,33.27
2018-06-04T01:45:34.996Z,32.53
2018-06-04T01:48:02.560Z,32.60
2018-06-04T01:50:30.106Z,34.33
2018-06-04T01:52:57.670Z,34.00
2018-06-04T01:55:25.227Z,32.50
2018-06-04T01:57:52.786Z,33.43
2018-06-04T02:00:20.345Z,34.97
2018-06-04T02:02:47.897Z,35.37
2018-06-04T02:05:15.453Z,37.20
2018-06-04T02:07:43.009Z,36.37
2018-06-04T02:10:10.552Z,38.00
2018-06-04T02:12:38.107Z,36.87
2018-06-04T02:15:05.677Z,32.77
2018-06-04T02:17:33.233Z,33.73
2018-06-04T02:20:00.783Z,30.33
2018-06-04T02:22:28.325Z,34.63
2018-06-04T02:24:55.870Z,33.33
2018-06-04T02:27:23.422Z,32.57
2018-06-04T02:29:50.982Z,34.57
2018-06-04T02:32:18.569Z,32.87
2018-06-04T02:34:46.130Z,31.70
2018-06-04T02:37:13.709Z,30.23
2018-06-04T02:39:41.266Z,32.50
2018-06-04T02:42:08.825Z,31.97
2018-06-04T02:44:36.385Z,34.03
2018-06-04T02:47:04.119Z,33.93
2018-06-04T02:49:31.670Z,35.83
2018-06-04T02:51:59.219Z,37.70
2018-06-04T02:54:26.774Z,39.83
2018-06-04T02:56:54.325Z,40.03
2018-06-04T02:59:21.887Z,39.47
2018-06-04T03:01:49.459Z,41.47
2018-06-04T03:04:17.038Z,40.97
2018-06-04T03:06:44.587Z,41.10
2018-06-04T03:09:12.159Z,40.13
2018-06-04T03:11:39.724Z,37.07
2018-06-04T03:14:07.274Z,38.27
2018-06-04T03:16:34.839Z,37.03
2018-06-04T03:19:02.415Z,37.37
2018-06-04T03:21:29.957Z,39.87
2018-06-04T03:23:57.520Z,40.07
2018-06-04T03:26:25.058Z,39.83
2018-06-04T03:28:52.638Z,40.27
2018-06-04T03:31:20.198Z,40.10
2018-06-04T03:33:47.753Z,38.27
2018-06-04T03:36:15.289Z,37.63
2018-06-04T03:38:42.845Z,38.80
2018-06-04T03:41:10.393Z,38.63
2018-06-04T03:43:37.949Z,39.20
2018-06-04T03:46:05.501Z,39.07
2018-06-04T03:48:33.072Z,40.73
2018-06-04T03:51:00.622Z,40.43
2018-06-04T03:53:28.222Z,39.93
2018-06-04T03:55:55.762Z,39.77
2018-06-04T03:58:23.309Z,41.37
2018-06-04T04:00:50.878Z,38.97
2018-06-04T04:03:18.485Z,40.90
2018-06-04T04:05:46.062Z,40.00
2018-06-04T04:08:13.621Z,43.23
2018-06-04T04:10:41.170Z,41.03
2018-06-04T04:13:08.721Z,42.33
2018-06-04T04:15:36.281Z,42.37
2018-06-04T04:18:03.826Z,44.70
2018-06-04T04:20:31.363Z,42.57
2018-06-04T04:22:58.897Z,42.03
2018-06-04T04:25:26.482Z,41.10
2018-06-04T04:27:54.143Z,41.20
2018-06-04T04:30:21.643Z,38.80
2018-06-04T04:32:49.181Z,41.23
2018-06-04T04:35:16.733Z,37.10
2018-06-04T04:37:44.278Z,36.40
2018-06-04T04:40:11.842Z,35.80
2018-06-04T04:42:39.406Z,36.60
2018-06-04T04:45:06.969Z,38.50
2018-06-04T04:47:34.514Z,37.60
2018-06-04T04:50:02.098Z,40.20
2018-06-04T04:52:29.649Z,39.43
2018-06-04T04:54:57.194Z,40.03
2018-06-04T04:57:24.767Z,39.40
2018-06-04T04:59:52.339Z,41.98
2018-06-04T05:02:19.903Z,43.52
2018-06-04T05:04:47.466Z,38.65
2018-06-04T05:07:15.031Z,36.80
2018-06-04T05:09:42.569Z,33.95
2018-06-04T05:12:10.137Z,30.55
2018-06-04T05:14:37.679Z,30.48
2018-06-04T05:17:05.255Z,28.30
2018-06-04T05:19:32.799Z,26.33
2018-06-04T05:22:00.361Z,27.42
2018-06-04T05:24:27.971Z,26.82
2018-06-04T05:26:55.539Z,26.05
2018-06-04T05:29:23.082Z,23.52
2018-06-04T05:31:50.663Z,23.32
2018-06-04T05:34:18.161Z,23.07
2018-06-04T05:36:45.722Z,22.50
2018-06-04T05:39:13.302Z,22.45
2018-06-04T05:41:53.947Z,21.40
2018-06-04T05:44:21.562Z,22.70
2018-06-04T05:46:49.100Z,21.93
2018-06-04T05:49:16.647Z,21.40
2018-06-04T05:51:44.228Z,21.00
2018-06-04T05:54:11.837Z,19.92
2018-06-04T05:56:45.683Z,20.50
2018-06-04T05:59:13.220Z,20.75
2018-06-04T06:01:40.780Z,21.17
2018-06-04T06:04:08.330Z,21.27
2018-06-04T06:06:35.910Z,20.52
2018-06-04T06:09:07.375Z,19.05
2018-06-04T06:11:35.057Z,18.75
2018-06-04T06:14:02.904Z,20.45
2018-06-04T06:16:30.483Z,21.10
2018-06-04T06:18:58.026Z,20.30
2018-06-04T06:21:25.585Z,20.88
2018-06-04T06:23:53.141Z,20.40
2018-06-04T06:26:20.689Z,19.95
2018-06-04T06:28:48.239Z,20.45
2018-06-04T06:31:15.794Z,19.10
2018-06-04T06:33:43.330Z,20.35
2018-06-04T06:36:10.881Z,20.60
2018-06-04T06:38:38.426Z,19.23
2018-06-04T06:41:06.002Z,19.07
2018-06-04T06:43:33.555Z,19.35
2018-06-04T06:46:01.107Z,20.82
2018-06-04T06:48:28.641Z,19.15
2018-06-04T06:50:56.185Z,19.32
2018-06-04T06:53:23.732Z,19.52
2018-06-04T06:55:51.298Z,18.85
2018-06-04T06:58:18.859Z,19.17
2018-06-04T07:00:46.404Z,18.82
2018-06-04T07:03:13.966Z,17.57
2018-06-04T07:05:41.526Z,18.40
2018-06-04T07:08:09.101Z,18.82
2018-06-04T07:10:36.637Z,18.77
2018-06-04T07:13:04.201Z,18.10
2018-06-04T07:15:31.765Z,17.23
2018-06-04T07:17:59.319Z,19.10
2018-06-04T07:20:26.870Z,19.65
2018-06-04T07:22:54.422Z,18.67
2018-06-04T07:25:21.962Z,17.57
2018-06-04T07:27:49.514Z,17.95
2018-06-04T07:30:17.060Z,18.48
2018-06-04T07:32:44.602Z,19.05
2018-06-04T07:35:12.151Z,18.25
2018-06-04T07:37:39.770Z,17.10
2018-06-04T07:40:08.498Z,19.05
2018-06-04T07:42:36.049Z,19.05
2018-06-04T07:45:03.659Z,17.80
2018-06-04T07:47:32.066Z,18.48
2018-06-04T07:50:00.507Z,17.52
2018-06-04T07:52:28.464Z,17.35
2018-06-04T07:54:56.054Z,18.20
2018-06-04T07:57:23.849Z,17.98
2018-06-04T07:59:51.390Z,16.85
2018-06-04T08:02:18.936Z,16.02
2018-06-04T08:04:46.461Z,15.60
2018-06-04T08:07:14.002Z,17.75
2018-06-04T08:09:41.575Z,18.55
2018-06-04T08:12:09.135Z,16.32
2018-06-04T08:14:36.689Z,15.05
2018-06-04T08:17:04.491Z,19.00
2018-06-04T08:19:32.058Z,16.42
2018-06-04T08:21:59.623Z,16.48
2018-06-04T08:24:27.163Z,15.48
2018-06-04T08:26:54.714Z,14.58
2018-06-04T08:29:22.315Z,14.65
2018-06-04T08:31:49.848Z,13.40
2018-06-04T08:34:17.390Z,11.68
2018-06-04T08:36:44.949Z,12.68
2018-06-04T08:39:12.519Z,13.30
2018-06-04T08:41:40.069Z,13.70
2018-06-04T08:44:07.670Z,12.30
2018-06-04T08:46:35.221Z,12.98
2018-06-04T08:49:02.787Z,12.95
2018-06-04T08:51:30.330Z,11.83
2018-06-04T08:53:57.902Z,11.43
2018-06-04T08:56:27.511Z,10.58
2018-06-04T08:58:55.063Z,9.78
2018-06-04T09:01:22.621Z,10.23
2018-06-04T09:03:50.141Z,9.48
2018-06-04T09:06:17.714Z,9.88
2018-06-04T09:08:45.264Z,9.83
2018-06-04T09:11:12.814Z,11.10
2018-06-04T09:13:40.361Z,10.60
2018-06-04T09:16:07.913Z,11.68
2018-06-04T09:18:35.474Z,11.83
2018-06-04T09:21:03.065Z,11.53
2018-06-04T09:23:41.311Z,12.20
2018-06-04T09:26:08.879Z,11.20
2018-06-04T09:28:36.409Z,10.13
2018-06-04T09:31:03.960Z,9.68
2018-06-04T09:33:31.507Z,9.03
2018-06-04T09:35:59.053Z,8.38
2018-06-04T09:38:26.597Z,9.70
2018-06-04T09:40:54.138Z,10.70
2018-06-04T09:43:21.678Z,12.13
2018-06-04T09:45:49.258Z,10.28
2018-06-04T09:48:16.793Z,9.40
2018-06-04T09:50:44.330Z,9.68
2018-06-04T09:53:11.900Z,9.65
2018-06-04T09:55:39.455Z,8.70
2018-06-04T09:58:07.006Z,8.90
2018-06-04T10:00:35.317Z,8.88
2018-06-04T10:03:04.718Z,8.58
2018-06-04T10:05:32.271Z,9.15
2018-06-04T10:07:59.846Z,7.92
2018-06-04T10:10:27.383Z,8.58
2018-06-04T10:12:54.923Z,8.25
2018-06-04T10:15:22.522Z,8.40
2018-06-04T10:17:50.057Z,9.05
2018-06-04T10:20:17.597Z,9.48
2018-06-04T10:22:45.154Z,8.60
2018-06-04T10:25:12.725Z,7.78
2018-06-04T10:27:40.281Z,7.78
2018-06-04T10:30:07.833Z,8.55
2018-06-04T10:32:35.386Z,9.13
2018-06-04T10:35:02.955Z,8.13
2018-06-04T10:37:30.550Z,8.13
2018-06-04T10:39:58.097Z,7.97
2018-06-04T10:42:25.650Z,8.40
2018-06-04T10:44:53.202Z,8.40
2018-06-04T10:47:20.762Z,8.98
2018-06-04T10:49:48.306Z,8.00
2018-06-04T10:52:15.856Z,7.87
2018-06-04T10:54:43.421Z,8.10
2018-06-04T10:57:10.966Z,8.70
2018-06-04T10:59:38.522Z,8.35
2018-06-04T11:02:06.078Z,8.75
2018-06-04T11:04:33.650Z,8.10
2018-06-04T11:07:01.231Z,7.35
2018-06-04T11:09:28.807Z,7.15
2018-06-04T11:11:56.360Z,7.00
2018-06-04T11:14:23.918Z,7.53
2018-06-04T11:16:51.438Z,8.55
2018-06-04T11:19:19.038Z,7.92
2018-06-04T11:21:46.582Z,6.85
2018-06-04T11:24:14.162Z,6.75
2018-06-04T11:26:41.794Z,6.50
2018-06-04T11:29:09.366Z,6.72
2018-06-04T11:31:36.921Z,7.28
2018-06-04T11:34:04.663Z,6.85
2018-06-04T11:36:32.210Z,6.60
2018-06-04T11:38:59.754Z,7.20
2018-06-04T11:41:27.297Z,8.33
2018-06-04T11:43:54.907Z,7.60
2018-06-04T11:46:22.419Z,7.12
2018-06-04T11:48:49.973Z,7.72
2018-06-04T11:51:17.528Z,7.90
2018-06-04T11:53:45.074Z,8.18
2018-06-04T11:56:12.614Z,7.22
2018-06-04T11:58:40.200Z,6.75
2018-06-04T12:01:07.742Z,5.92
2018-06-04T12:03:35.285Z,6.17
2018-06-04T12:06:02.837Z,6.95
2018-06-04T12:08:30.386Z,6.70
2018-06-04T12:10:57.950Z,6.62
2018-06-04T12:13:25.497Z,6.85
2018-06-04T12:15:53.046Z,6.22
2018-06-04T12:18:20.582Z,6.25
2018-06-04T12:20:48.155Z,6.33
2018-06-04T12:23:15.701Z,6.35
2018-06-04T12:25:43.241Z,7.00
2018-06-04T12:28:10.833Z,7.20
2018-06-04T12:30:38.366Z,6.95
2018-06-04T12:33:05.926Z,6.97
2018-06-04T12:35:33.478Z,7.00
2018-06-04T12:38:01.038Z,7.12
2018-06-04T12:40:28.592Z,7.20
2018-06-04T12:42:56.149Z,6.45
2018-06-04T12:45:23.701Z,6.53
2018-06-04T12:47:51.236Z,6.45
2018-06-04T12:50:18.813Z,6.30
2018-06-04T12:52:46.332Z,6.87
2018-06-04T12:55:13.962Z,6.60
2018-06-04T12:57:41.538Z,6.30
2018-06-04T13:00:09.094Z,6.10
2018-06-04T13:02:36.634Z,5.87
2018-06-04T13:05:04.206Z,5.67
2018-06-04T13:07:31.748Z,5.70
2018-06-04T13:09:59.285Z,5.42
2018-06-04T13:12:26.826Z,5.70
2018-06-04T13:14:54.345Z,6.10
2018-06-04T13:17:21.903Z,5.75
2018-06-04T13:19:49.432Z,6.08
2018-06-04T13:22:16.965Z,6.45
2018-06-04T13:24:44.502Z,5.75
2018-06-04T13:27:12.055Z,6.12
2018-06-04T13:29:39.603Z,6.33
2018-06-04T13:32:07.158Z,5.95
2018-06-04T13:34:34.685Z,6.08
2018-06-04T13:37:02.241Z,7.40
2018-06-04T13:39:29.789Z,6.92
2018-06-04T13:41:57.341Z,6.83
2018-06-04T13:44:24.865Z,8.05
2018-06-04T13:46:52.425Z,7.55
2018-06-04T13:49:19.961Z,7.62
2018-06-04T13:51:47.514Z,7.60
2018-06-04T13:54:15.069Z,7.50
2018-06-04T13:56:42.628Z,6.95
2018-06-04T13:59:10.218Z,6.95
2018-06-04T14:01:37.753Z,8.75
2018-06-04T14:04:05.317Z,7.85
2018-06-04T14:06:32.873Z,8.13
2018-06-04T14:09:00.423Z,8.68
2018-06-04T14:11:27.969Z,7.80
2018-06-04T14:13:55.504Z,8.48
2018-06-04T14:16:23.040Z,8.15
2018-06-04T14:18:50.600Z,8.85
2018-06-04T14:21:18.170Z,8.18
2018-06-04T14:23:45.709Z,8.35
2018-06-04T14:26:13.246Z,8.23
2018-06-04T14:28:40.806Z,9.85
2018-06-04T14:31:08.357Z,8.93
2018-06-04T14:33:35.934Z,9.23
2018-06-04T14:36:03.475Z,9.35
2018-06-04T14:38:31.032Z,9.20
2018-06-04T14:40:58.659Z,8.48
2018-06-04T14:43:26.202Z,8.50
2018-06-04T14:45:53.753Z,8.80
2018-06-04T14:48:21.282Z,8.75
2018-06-04T14:50:48.829Z,7.37
2018-06-04T14:53:16.376Z,7.70
2018-06-04T14:55:43.946Z,7.60
2018-06-04T14:58:11.472Z,8.30
2018-06-04T15:00:39.012Z,7.75
2018-06-04T15:03:06.558Z,7.92
2018-06-04T15:05:34.081Z,8.03
2018-06-04T15:08:01.640Z,7.60
2018-06-04T15:10:29.170Z,8.30
2018-06-04T15:12:56.718Z,8.50
2018-06-04T15:15:24.286Z,8.00
2018-06-04T15:17:51.820Z,7.92
2018-06-04T15:20:19.366Z,7.67
2018-06-04T15:22:46.952Z,7.60
2018-06-04T15:25:14.488Z,7.40
2018-06-04T15:27:42.009Z,7.85
2018-06-04T15:30:09.577Z,7.30
2018-06-04T15:32:37.167Z,7.28
2018-06-04T15:35:04.751Z,7.47
2018-06-04T15:37:32.291Z,7.40
2018-06-04T15:39:59.831Z,6.95
2018-06-04T15:42:27.369Z,7.40
2018-06-04T15:44:54.914Z,7.30
2018-06-04T15:47:22.464Z,7.10
2018-06-04T15:49:50.009Z,8.08
2018-06-04T15:52:17.549Z,8.35
2018-06-04T15:54:45.093Z,7.95
2018-06-04T15:57:12.638Z,8.03
2018-06-04T15:59:40.165Z,7.55
2018-06-04T16:02:07.706Z,8.63
2018-06-04T16:04:35.261Z,8.33
2018-06-04T16:07:02.797Z,7.90
2018-06-04T16:09:30.385Z,7.70
2018-06-04T16:11:57.906Z,9.00
2018-06-04T16:14:25.453Z,9.30
2018-06-04T16:16:53.001Z,7.67
2018-06-04T16:19:20.543Z,8.13
2018-06-04T16:21:48.060Z,8.45
2018-06-04T16:24:15.597Z,8.50
2018-06-04T16:26:43.137Z,8.80
2018-06-04T16:29:10.686Z,8.18
2018-06-04T16:31:38.225Z,8.30
2018-06-04T16:34:05.786Z,8.65
2018-06-04T16:36:33.366Z,10.30
2018-06-04T16:39:00.907Z,12.98
2018-06-04T16:41:28.449Z,8.33
2018-06-04T16:43:55.986Z,7.92
2018-06-04T16:46:23.538Z,8.83
2018-06-04T16:48:51.088Z,9.10
2018-06-04T16:51:18.658Z,9.05
2018-06-04T16:53:46.195Z,8.38
2018-06-04T16:56:13.746Z,10.08
2018-06-04T16:58:41.296Z,12.37
2018-06-04T17:01:08.847Z,10.70
2018-06-04T17:03:36.374Z,11.43
2018-06-04T17:06:03.978Z,11.00
2018-06-04T17:08:31.538Z,9.83
2018-06-04T17:10:59.080Z,9.25
2018-06-04T17:13:26.621Z,10.90
2018-06-04T17:15:54.174Z,11.03
2018-06-04T17:18:21.716Z,9.75
2018-06-04T17:20:49.279Z,9.00
2018-06-04T17:23:16.821Z,8.58
2018-06-04T17:25:44.402Z,8.85
2018-06-04T17:28:11.943Z,8.70
2018-06-04T17:30:39.497Z,7.97
2018-06-04T17:33:07.034Z,8.75
2018-06-04T17:35:34.602Z,8.83
2018-06-04T17:38:02.130Z,8.70
2018-06-04T17:40:29.684Z,8.15
2018-06-04T17:42:57.231Z,8.38
2018-06-04T17:45:24.788Z,8.40
2018-06-04T17:47:52.333Z,8.38
2018-06-04T17:50:19.885Z,8.30
2018-06-04T17:52:47.437Z,8.83
2018-06-04T17:55:14.998Z,7.97
2018-06-04T17:57:42.559Z,7.90
2018-06-04T18:00:10.170Z,8.03
2018-06-04T18:02:37.717Z,10.30
2018-06-04T18:05:05.287Z,9.43
2018-06-04T18:07:32.855Z,10.63
2018-06-04T18:10:00.386Z,9.60
2018-06-04T18:12:27.956Z,8.53
2018-06-04T18:14:55.502Z,7.90
2018-06-04T18:17:23.041Z,7.70
2018-06-04T18:19:50.577Z,7.83
2018-06-04T18:22:18.134Z,9.33
2018-06-04T18:24:45.669Z,8.68
2018-06-04T18:27:13.222Z,9.73
2018-06-04T18:29:40.771Z,8.65
2018-06-04T18:32:08.321Z,9.15
2018-06-04T18:34:35.870Z,8.75
2018-06-04T18:37:03.438Z,8.50
2018-06-04T18:39:30.981Z,9.03
2018-06-04T18:41:58.550Z,8.98
2018-06-04T18:44:26.120Z,8.55
2018-06-04T18:46:53.665Z,9.48
2018-06-04T18:49:21.227Z,8.70
2018-06-04T18:51:48.778Z,9.35
2018-06-04T18:54:16.343Z,8.65
2018-06-04T18:56:43.885Z,8.95
2018-06-04T18:59:11.441Z,9.10
2018-06-04T19:01:38.985Z,9.28
2018-06-04T19:04:06.541Z,8.38
2018-06-04T19:06:34.095Z,8.93
2018-06-04T19:09:01.789Z,8.95
2018-06-04T19:11:29.229Z,9.33
2018-06-04T19:13:56.802Z,9.28
2018-06-04T19:16:24.355Z,9.13
2018-06-04T19:19:11.179Z,10.18
2018-06-04T19:21:38.737Z,8.75
2018-06-04T19:24:06.298Z,9.15
2018-06-04T19:26:33.853Z,9.15
2018-06-04T19:29:01.432Z,9.55
2018-06-04T19:31:28.982Z,9.45
2018-06-04T19:33:56.734Z,9.08
2018-06-04T19:36:24.289Z,9.98
2018-06-04T19:38:51.825Z,9.78
2018-06-04T19:41:19.413Z,9.98
2018-06-04T19:43:46.992Z,9.38
2018-06-04T19:46:14.533Z,9.63
2018-06-04T19:48:42.069Z,9.73
2018-06-04T19:51:09.646Z,9.93
2018-06-04T19:53:37.200Z,10.10
2018-06-04T19:56:04.825Z,9.98
2018-06-04T19:58:32.394Z,10.10
2018-06-04T20:00:59.982Z,10.70
2018-06-04T20:03:27.566Z,9.83
2018-06-04T20:05:55.182Z,10.20
2018-06-04T20:08:22.766Z,9.53
2018-06-04T20:10:50.334Z,9.78
2018-06-04T20:13:17.891Z,10.05
2018-06-04T20:15:45.437Z,10.32
2018-06-04T20:18:12.964Z,10.05
2018-06-04T20:20:40.506Z,10.13
2018-06-04T20:23:08.051Z,9.68
2018-06-04T20:25:35.613Z,9.88
2018-06-04T20:28:03.170Z,9.73
2018-06-04T20:30:30.731Z,9.53
2018-06-04T20:32:58.285Z,10.25
2018-06-04T20:35:25.813Z,10.45
2018-06-04T20:37:53.405Z,10.25
2018-06-04T20:40:20.991Z,10.50
2018-06-04T20:42:48.553Z,9.78
2018-06-04T20:45:16.118Z,10.60
2018-06-04T20:47:43.657Z,10.63
2018-06-04T20:50:11.206Z,9.30
2018-06-04T20:55:53.154Z,11.35
2018-06-04T20:58:24.138Z,10.43
2018-06-04T21:01:08.138Z,11.05
2018-06-04T21:04:05.861Z,11.40
2018-06-04T21:12:35.480Z,10.80
2018-06-04T21:15:03.053Z,9.88
2018-06-04T21:20:50.688Z,11.80
2018-06-04T21:23:18.232Z,10.43
2018-06-04T21:25:45.814Z,10.85
2018-06-04T21:28:13.381Z,11.75
2018-06-04T21:30:40.940Z,11.08
2018-06-04T21:33:08.473Z,11.65
2018-06-04T21:35:36.027Z,11.10
2018-06-04T21:38:03.634Z,11.78
2018-06-04T21:40:50.485Z,11.12
2018-06-04T21:46:21.565Z,11.65
2018-06-04T21:48:49.093Z,11.57
2018-06-04T21:51:17.555Z,11.55
2018-06-04T21:53:45.145Z,11.03
2018-06-04T21:56:12.685Z,12.45
2018-06-04T21:58:40.233Z,11.75
2018-06-04T22:01:07.789Z,12.00
2018-06-04T22:03:35.322Z,13.08
2018-06-04T22:06:02.946Z,12.55
2018-06-04T22:08:30.522Z,12.35
2018-06-04T22:10:58.578Z,12.43
2018-06-04T22:13:26.146Z,12.63
2018-06-04T22:15:53.714Z,12.35
2018-06-04T22:18:21.273Z,13.20
2018-06-04T22:20:48.850Z,12.45
2018-06-04T22:23:16.436Z,12.43
2018-06-04T22:25:43.982Z,14.00
2018-06-04T22:28:11.541Z,13.60
2018-06-04T22:30:39.100Z,12.93
2018-06-04T22:33:06.657Z,13.30
2018-06-04T22:35:34.192Z,12.90
2018-06-04T22:38:01.742Z,13.80
2018-06-04T22:40:29.285Z,12.80
2018-06-04T22:42:56.834Z,12.63
2018-06-04T22:45:24.385Z,13.77
2018-06-04T22:47:51.964Z,15.03
2018-06-04T22:50:19.515Z,14.60
2018-06-04T22:52:47.073Z,14.87
2018-06-04T22:55:14.626Z,14.93
2018-06-04T22:57:42.217Z,13.90
2018-06-04T23:00:13.710Z,14.60
2018-06-04T23:02:41.253Z,15.10
2018-06-04T23:05:08.805Z,14.87
2018-06-04T23:07:36.381Z,14.50
2018-06-04T23:10:03.948Z,14.50
2018-06-04T23:12:31.514Z,14.97
2018-06-04T23:14:59.050Z,14.87
2018-06-04T23:17:27.390Z,14.87
2018-06-04T23:19:54.921Z,14.00
2018-06-04T23:22:22.461Z,14.63
2018-06-04T23:24:50.014Z,14.23
2018-06-04T23:27:17.562Z,14.90
2018-06-04T23:29:45.117Z,15.10
2018-06-04T23:32:12.656Z,14.53
2018-06-04T23:34:40.250Z,14.60
2018-06-04T23:37:07.784Z,14.63
2018-06-04T23:39:35.324Z,14.57
2018-06-04T23:42:02.881Z,15.70
2018-06-04T23:44:30.441Z,16.70
2018-06-04T23:46:57.978Z,16.70
2018-06-04T23:49:25.546Z,17.27
2018-06-04T23:51:53.705Z,16.93
2018-06-04T23:54:21.253Z,18.20
2018-06-04T23:56:48.790Z,17.73
2018-06-04T23:59:16.329Z,18.77
